BGUK

Upernavik Airport

Upernavik, Greenland
TAF BGUK 171155Z 1712/1720 05005KT 9999 BCFG FEW002 SCT020 TEMPO 1712/1720 0800 FZFG VV002
Issued Valid From Valid To
Dec-17 @ 11:55 UTC
(54 minutes ago)
Dec-17 @ 12:00 UTC
(49 minutes ago)
Dec-17 @ 20:00 UTC
(in 7 hours)
Dec-17 @ 12:00 to Dec-17 @ 20:00
TAF BGUK 171155Z 1712/1720 05005KT 9999 BCFG FEW002 SCT020
Wind Visibility Clouds Conditions
50° at 5 knots 10,000+ meters
  • Few at 200' AGL
  • Scattered at 2,000' AGL
  • Patches of
  • Fog
Temporary Dec-17 @ 12:00 to Dec-17 @ 20:00
TEMPO 1712/1720 0800 FZFG VV002
Visibility Clouds Conditions
805 meters
  • Vertical visibility at 200' AGL
  • Freezing
  • Fog
TAF BGUK 171155Z 1712/1720 05005KT 9999 BCFG FEW002 SCT020 TEMPO 1712/1720 0800 FZFG VV002
Issued Dec-17 @ 11:55 UTC
(54 minutes ago)
Valid From Dec-17 @ 12:00 UTC
(49 minutes ago)
Valid To Dec-17 @ 20:00 UTC
(in 7 hours)
Dec-17 @ 12:00 - Dec-17 @ 20:00
Wind Visibility
50° at 5 knots 10,000+ meters
Clouds
  • Few at 200' AGL
  • Scattered at 2,000' AGL
Conditions
  • Patches of
  • Fog
Temporary Dec-17 @ 12:00 - Dec-17 @ 20:00
Clouds
  • Vertical visibility at 200' AGL
Conditions
  • Freezing
  • Fog